createdAt,value
2023-04-23T00:00:24.724Z,98369.31
2023-04-23T00:02:55.043Z,98365.91
2023-04-23T00:05:24.798Z,98364.06
2023-04-23T00:07:54.849Z,98364.38
2023-04-23T00:10:24.237Z,98365.69
2023-04-23T00:12:53.375Z,98361.72
2023-04-23T00:15:22.316Z,98367.75
2023-04-23T00:17:51.119Z,98362.50
2023-04-23T00:20:19.903Z,98354.34
2023-04-23T00:22:48.513Z,98366.22
2023-04-23T00:25:18.438Z,98365.19
2023-04-23T00:27:47.730Z,98360.72
2023-04-23T00:30:16.809Z,98358.09
2023-04-23T00:32:45.842Z,98362.00
2023-04-23T00:35:14.520Z,98361.47
2023-04-23T00:37:43.367Z,98364.09
2023-04-23T00:40:12.404Z,98370.41
2023-04-23T00:42:44.206Z,98372.25
2023-04-23T00:45:13.302Z,98367.78
2023-04-23T00:47:42.260Z,98373.59
2023-04-23T00:50:13.135Z,98381.50
2023-04-23T00:52:41.847Z,98379.94
2023-04-23T00:55:10.886Z,98381.50
2023-04-23T00:57:39.953Z,98385.69
2023-04-23T01:00:13.946Z,98383.31
2023-04-23T01:02:44.430Z,98387.25
2023-04-23T01:05:14.282Z,98394.06
2023-04-23T01:07:44.567Z,98393.25
2023-04-23T01:10:13.672Z,98399.28
2023-04-23T01:12:42.340Z,98401.84
2023-04-23T01:15:12.832Z,98405.47
2023-04-23T01:17:41.462Z,98393.03
2023-04-23T01:20:10.954Z,98405.34
2023-04-23T01:22:41.014Z,98402.91
2023-04-23T01:25:10.724Z,98403.13
2023-04-23T01:27:39.753Z,98400.72
2023-04-23T01:30:09.798Z,98401.94
2023-04-23T01:32:38.724Z,98402.44
2023-04-23T01:35:08.345Z,98404.22
2023-04-23T01:37:38.623Z,98414.38
2023-04-23T01:40:10.130Z,98414.34
2023-04-23T01:42:39.294Z,98412.75
2023-04-23T01:45:09.801Z,98411.28
2023-04-23T01:47:38.440Z,98422.00
2023-04-23T01:50:08.144Z,98416.66
2023-04-23T01:52:37.154Z,98420.09
2023-04-23T01:55:06.390Z,98420.56
2023-04-23T01:57:36.399Z,98423.16
2023-04-23T02:00:09.044Z,98417.50
2023-04-23T02:02:37.924Z,98423.31
2023-04-23T02:05:12.047Z,98427.47
2023-04-23T02:07:41.011Z,98430.19
2023-04-23T02:10:11.026Z,98429.34
2023-04-23T02:12:41.480Z,98432.50
2023-04-23T02:15:11.496Z,98433.53
2023-04-23T02:17:40.556Z,98434.03
2023-04-23T02:20:10.467Z,98436.41
2023-04-23T02:22:40.110Z,98445.00
2023-04-23T02:25:09.507Z,98446.28
2023-04-23T02:27:38.247Z,98438.63
2023-04-23T02:30:09.853Z,98443.09
2023-04-23T02:32:39.005Z,98453.13
2023-04-23T02:35:09.391Z,98438.63
2023-04-23T02:37:38.258Z,98434.44
2023-04-23T02:40:08.337Z,98437.06
2023-04-23T02:42:37.024Z,98426.09
2023-04-23T02:45:06.745Z,98429.75
2023-04-23T02:47:36.809Z,98437.06
2023-04-23T02:50:06.449Z,98436.00
2023-04-23T02:52:35.623Z,98432.84
2023-04-23T02:55:05.195Z,98441.25
2023-04-23T02:57:34.460Z,98438.81
2023-04-23T03:00:04.168Z,98442.16
2023-04-23T03:02:32.891Z,98444.13
2023-04-23T03:05:03.067Z,98444.84
2023-04-23T03:07:31.766Z,98454.56
2023-04-23T03:10:00.374Z,98452.19
2023-04-23T03:12:28.938Z,98447.47
2023-04-23T03:14:57.540Z,98438.34
2023-04-23T03:17:26.157Z,98437.72
2023-04-23T03:19:54.796Z,98433.00
2023-04-23T03:22:24.979Z,98432.84
2023-04-23T03:24:53.628Z,98439.63
2023-04-23T03:27:22.265Z,98437.78
2023-04-23T03:29:50.973Z,98432.53
2023-04-23T03:32:19.732Z,98424.66
2023-04-23T03:34:48.366Z,98418.63
2023-04-23T03:37:16.983Z,98423.53
2023-04-23T03:39:46.924Z,98428.78
2023-04-23T03:42:16.230Z,98421.97
2023-04-23T03:44:44.927Z,98429.75
2023-04-23T03:47:13.549Z,98411.78
2023-04-23T03:49:42.177Z,98425.75
2023-04-23T03:52:10.817Z,98428.38
2023-04-23T03:54:39.542Z,98416.88
2023-04-23T03:57:09.898Z,98426.56
2023-04-23T03:59:38.610Z,98433.41
2023-04-23T04:02:07.408Z,98447.00
2023-04-23T04:04:36.670Z,98451.22
2023-04-23T04:07:05.729Z,98452.25
2023-04-23T04:09:34.336Z,98452.81
2023-04-23T04:12:04.075Z,98441.50
2023-04-23T04:14:34.296Z,98452.47
2023-04-23T04:17:02.904Z,98451.59
2023-04-23T04:19:31.499Z,98445.81
2023-04-23T04:22:02.382Z,98458.44
2023-04-23T04:24:32.393Z,98462.03
2023-04-23T04:27:01.659Z,98463.59
2023-04-23T04:29:31.087Z,98460.50
2023-04-23T04:32:01.331Z,98454.69
2023-04-23T04:34:30.029Z,98451.53
2023-04-23T04:36:58.628Z,98455.25
2023-04-23T04:39:27.207Z,98452.19
2023-04-23T04:41:55.842Z,98460.81
2023-04-23T04:44:25.207Z,98465.53
2023-04-23T04:46:53.896Z,98458.34
2023-04-23T04:49:23.985Z,98447.84
2023-04-23T04:51:54.236Z,98461.53
2023-04-23T04:54:22.820Z,98458.28
2023-04-23T04:56:51.416Z,98456.91
2023-04-23T04:59:20.073Z,98459.44
2023-04-23T05:01:48.728Z,98463.66
2023-04-23T05:04:17.692Z,98453.72
2023-04-23T05:06:47.738Z,98448.47
2023-04-23T05:09:16.629Z,98452.94
2023-04-23T05:11:45.281Z,98453.50
2023-04-23T05:14:13.862Z,98462.94
2023-04-23T05:16:42.636Z,98462.94
2023-04-23T05:19:11.366Z,98463.53
2023-04-23T05:21:40.467Z,98455.19
2023-04-23T05:24:10.554Z,98440.81
2023-04-23T05:26:39.199Z,98447.47
2023-04-23T05:29:07.789Z,98452.97
2023-04-23T05:31:36.515Z,98458.44
2023-04-23T05:34:05.168Z,98465.06
2023-04-23T05:36:33.803Z,98464.41
2023-04-23T05:39:02.377Z,98464.00
2023-04-23T05:41:32.299Z,98461.81
2023-04-23T05:44:00.864Z,98461.31
2023-04-23T05:46:29.637Z,98446.13
2023-04-23T05:48:58.304Z,98457.00
2023-04-23T05:51:27.294Z,98447.38
2023-04-23T05:53:55.941Z,98448.84
2023-04-23T05:56:24.842Z,98446.84
2023-04-23T05:58:54.834Z,98445.66
2023-04-23T06:01:23.570Z,98453.13
2023-04-23T06:03:52.364Z,98460.22
2023-04-23T06:06:21.466Z,98461.56
2023-04-23T06:08:50.946Z,98462.66
2023-04-23T06:11:19.691Z,98452.47
2023-04-23T06:13:48.347Z,98458.50
2023-04-23T06:16:18.348Z,98461.31
2023-04-23T06:18:46.993Z,98461.13
2023-04-23T06:21:15.850Z,98462.31
2023-04-23T06:23:44.785Z,98459.28
2023-04-23T06:26:13.403Z,98459.19
2023-04-23T06:28:43.565Z,98456.06
2023-04-23T06:31:12.371Z,98458.16
2023-04-23T06:33:42.600Z,98460.59
2023-04-23T06:36:11.653Z,98461.47
2023-04-23T06:38:40.369Z,98458.66
2023-04-23T06:41:09.017Z,98465.28
2023-04-23T06:43:37.670Z,98457.94
2023-04-23T06:46:06.485Z,98456.44
2023-04-23T06:48:35.129Z,98448.63
2023-04-23T06:51:06.017Z,98446.00
2023-04-23T06:53:34.639Z,98434.00
2023-04-23T06:56:03.213Z,98439.75
2023-04-23T06:58:32.328Z,98434.47
2023-04-23T07:01:01.231Z,98433.50
2023-04-23T07:03:30.297Z,98440.41
2023-04-23T07:05:59.073Z,98444.31
2023-04-23T07:08:29.078Z,98441.97
2023-04-23T07:10:57.782Z,98433.56
2023-04-23T07:13:26.417Z,98427.53
2023-04-23T07:15:54.990Z,98417.97
2023-04-23T07:18:23.602Z,98417.88
2023-04-23T07:20:52.175Z,98416.09
2023-04-23T07:23:21.280Z,98423.56
2023-04-23T07:25:51.285Z,98413.09
2023-04-23T07:28:19.908Z,98426.28
2023-04-23T07:30:49.309Z,98418.22
2023-04-23T07:33:18.101Z,98414.03
2023-04-23T07:35:46.714Z,98417.44
2023-04-23T07:38:15.263Z,98416.41
2023-04-23T07:40:44.152Z,98420.41
2023-04-23T07:43:14.778Z,98411.75
2023-04-23T07:45:43.583Z,98405.72
2023-04-23T07:48:12.305Z,98405.97
2023-04-23T07:50:40.975Z,98412.03
2023-04-23T07:53:09.609Z,98407.38
2023-04-23T07:55:38.273Z,98402.81
2023-04-23T07:58:06.993Z,98413.13
2023-04-23T08:00:37.116Z,98398.47
2023-04-23T08:03:06.110Z,98392.81
2023-04-23T08:05:37.252Z,98394.13
2023-04-23T08:08:06.001Z,98398.31
2023-04-23T08:10:34.836Z,98395.72
2023-04-23T08:13:03.729Z,98391.75
2023-04-23T08:15:32.362Z,98395.47
2023-04-23T08:18:02.321Z,98391.50
2023-04-23T08:20:32.124Z,98391.25
2023-04-23T08:23:00.932Z,98376.44
2023-04-23T08:25:29.551Z,98377.97
2023-04-23T08:27:58.159Z,98369.69
2023-04-23T08:30:26.841Z,98370.78
2023-04-23T08:32:55.604Z,98376.44
2023-04-23T08:35:25.755Z,98363.09
2023-04-23T08:37:54.307Z,98374.22
2023-04-23T08:40:22.955Z,98371.16
2023-04-23T08:42:56.234Z,98364.59
2023-04-23T08:45:26.117Z,98364.88
2023-04-23T08:48:01.776Z,98358.75
2023-04-23T08:50:32.984Z,98349.94
2023-04-23T08:53:02.953Z,98340.94
2023-04-23T08:55:31.816Z,98356.19
2023-04-23T08:58:01.297Z,98355.53
2023-04-23T09:00:30.911Z,98360.81
2023-04-23T09:02:59.792Z,98364.22
2023-04-23T09:05:29.087Z,98352.47
2023-04-23T09:08:00.146Z,98345.78
2023-04-23T09:10:29.854Z,98345.97
2023-04-23T09:12:58.479Z,98339.56
2023-04-23T09:15:27.151Z,98344.84
2023-04-23T09:17:55.820Z,98341.13
2023-04-23T09:20:26.448Z,98331.97
2023-04-23T09:22:55.197Z,98339.88
2023-04-23T09:25:25.437Z,98330.25
2023-04-23T09:27:54.208Z,98328.38
2023-04-23T09:30:25.309Z,98326.41
